createdAt,value
2022-10-25T00:01:25.742Z,22.80
2022-10-25T00:11:32.087Z,20.60
2022-10-25T00:21:36.008Z,25.90
2022-10-25T00:31:40.127Z,22.50
2022-10-25T00:41:43.680Z,21.80
2022-10-25T00:51:51.197Z,23.00
2022-10-25T01:12:00.087Z,28.30
2022-10-25T01:22:06.874Z,26.20
2022-10-25T01:32:15.213Z,30.60
2022-10-25T01:42:27.063Z,34.10
2022-10-25T01:52:30.983Z,33.10
2022-10-25T02:02:49.896Z,35.00
2022-10-25T02:23:03.063Z,30.50
2022-10-25T02:33:07.674Z,34.00
2022-10-25T02:43:11.104Z,31.80
2022-10-25T02:53:14.681Z,35.60
2022-10-25T03:03:18.257Z,33.70
2022-10-25T03:13:22.807Z,41.90
2022-10-25T03:23:27.097Z,37.90
2022-10-25T03:43:33.923Z,35.40
2022-10-25T03:53:37.705Z,33.10
2022-10-25T04:03:41.160Z,33.30
2022-10-25T04:13:44.636Z,29.90
2022-10-25T04:23:49.166Z,25.20
2022-10-25T04:33:53.857Z,32.80
2022-10-25T04:43:57.526Z,25.30
2022-10-25T04:54:00.985Z,29.60
2022-10-25T05:04:05.005Z,29.20
2022-10-25T05:14:08.620Z,33.00
2022-10-25T05:24:12.253Z,27.70
2022-10-25T05:34:15.695Z,31.10
2022-10-25T05:44:19.735Z,25.10
2022-10-25T05:54:24.367Z,25.40
2022-10-25T06:04:28.182Z,20.80
2022-10-25T06:14:31.635Z,20.20
2022-10-25T06:24:35.060Z,21.00
2022-10-25T06:34:38.825Z,24.60
2022-10-25T06:44:42.480Z,22.20
2022-10-25T06:54:46.042Z,21.10
2022-10-25T07:04:49.596Z,16.30
2022-10-25T07:14:53.143Z,14.10
2022-10-25T07:24:56.779Z,13.90
2022-10-25T07:35:00.676Z,14.30
2022-10-25T07:45:05.666Z,14.00
2022-10-25T07:55:09.054Z,11.30
2022-10-25T08:05:12.816Z,12.50
2022-10-25T08:15:17.693Z,12.20
2022-10-25T08:25:22.533Z,18.00
2022-10-25T08:35:28.736Z,18.50
2022-10-25T08:45:33.350Z,16.70
2022-10-25T08:55:48.574Z,15.70
2022-10-25T09:06:05.848Z,11.50
2022-10-25T09:16:10.417Z,15.00
2022-10-25T09:26:21.075Z,7.90
2022-10-25T09:36:25.629Z,10.10
2022-10-25T09:46:35.641Z,10.10
2022-10-25T09:56:40.112Z,6.10
2022-10-25T10:06:44.609Z,8.70
2022-10-25T10:16:50.882Z,6.20
2022-10-25T10:26:57.921Z,9.40
2022-10-25T10:37:20.970Z,7.30
2022-10-25T10:47:29.465Z,10.50
2022-10-25T10:57:35.478Z,9.00
2022-10-25T11:07:42.903Z,9.10
2022-10-25T11:17:45.573Z,6.60
2022-10-25T11:27:59.210Z,6.20
2022-10-25T11:38:12.370Z,7.40
2022-10-25T11:48:24.451Z,5.70
2022-10-25T11:58:33.408Z,7.10
2022-10-25T12:08:42.449Z,8.60
2022-10-25T12:28:52.317Z,6.80
2022-10-25T12:38:58.962Z,8.10
2022-10-25T12:49:28.295Z,4.90
2022-10-25T12:59:35.752Z,4.20
2022-10-25T13:09:40.702Z,7.00
2022-10-25T13:19:54.866Z,6.20
2022-10-25T13:30:02.957Z,5.20
2022-10-25T13:40:13.502Z,9.20
2022-10-25T13:50:21.525Z,6.10
2022-10-25T14:00:34.280Z,9.70
2022-10-25T14:10:37.923Z,8.40
2022-10-25T14:20:44.762Z,11.10
2022-10-25T14:30:49.514Z,4.40
2022-10-25T14:40:52.673Z,4.50
2022-10-25T14:50:57.965Z,7.50
2022-10-25T15:01:03.564Z,6.20
2022-10-25T15:11:13.900Z,7.00
2022-10-25T15:21:18.993Z,13.40
2022-10-25T15:31:24.526Z,8.70
2022-10-25T15:41:28.800Z,16.10
2022-10-25T15:51:31.509Z,14.10
2022-10-25T16:01:35.375Z,13.60
2022-10-25T16:11:44.864Z,13.60
2022-10-25T16:21:50.856Z,18.30
2022-10-25T16:31:54.666Z,21.10
2022-10-25T16:41:58.714Z,17.20
2022-10-25T16:52:02.231Z,14.50
2022-10-25T17:02:07.496Z,17.80
2022-10-25T17:12:12.550Z,18.50
2022-10-25T17:22:16.093Z,19.10
2022-10-25T17:32:20.235Z,16.70
2022-10-25T17:42:23.830Z,23.90
2022-10-25T17:52:26.956Z,14.60
2022-10-25T18:02:31.265Z,23.40
2022-10-25T18:12:34.925Z,30.30
2022-10-25T18:22:38.518Z,29.20
2022-10-25T18:32:42.346Z,23.50
2022-10-25T18:42:45.920Z,32.10
2022-10-25T18:52:49.092Z,28.00
2022-10-25T19:02:53.549Z,29.70
2022-10-25T19:12:57.025Z,34.90
2022-10-25T19:23:00.518Z,28.80
2022-10-25T19:33:03.645Z,24.40
2022-10-25T19:43:06.770Z,22.30
2022-10-25T19:53:10.289Z,24.10
2022-10-25T20:03:14.116Z,26.00
2022-10-25T20:13:18.110Z,24.30
2022-10-25T20:23:21.923Z,27.30
2022-10-25T20:33:25.645Z,23.40
2022-10-25T20:43:29.249Z,21.20
2022-10-25T20:53:33.553Z,24.40
2022-10-25T21:03:38.042Z,21.50
2022-10-25T21:13:41.857Z,21.80
2022-10-25T21:23:45.800Z,20.60
2022-10-25T21:33:51.310Z,23.10
2022-10-25T21:43:56.744Z,24.70
2022-10-25T21:54:02.424Z,16.70
2022-10-25T22:04:05.347Z,16.80
2022-10-25T22:14:12.040Z,14.10
2022-10-25T22:24:16.161Z,18.80
2022-10-25T22:34:19.873Z,26.40
2022-10-25T22:44:23.618Z,17.90
2022-10-25T22:54:27.375Z,21.80
2022-10-25T23:04:30.873Z,14.50
2022-10-25T23:14:34.554Z,18.20
2022-10-25T23:24:38.070Z,19.40
2022-10-25T23:34:41.244Z,17.40
2022-10-25T23:44:45.244Z,16.20
2022-10-25T23:54:48.788Z,13.40
